sensor_id;sensor_type;location;lat;lon;timestamp;pressure;altitude;pressure_sealevel;temperature;humidity
58467;BME280;44255;49.244;7.726;2022-08-19T00:01:37;98010.59;;;18.15;73.50
58467;BME280;44255;49.244;7.726;2022-08-19T00:04:06;98009.16;;;18.21;73.11
58467;BME280;44255;49.244;7.726;2022-08-19T00:06:34;97996.91;;;18.16;73.37
58467;BME280;44255;49.244;7.726;2022-08-19T00:09:00;98003.31;;;18.15;73.06
58467;BME280;44255;49.244;7.726;2022-08-19T00:11:27;97997.91;;;18.15;72.78
58467;BME280;44255;49.244;7.726;2022-08-19T00:13:53;97995.59;;;18.21;72.44
58467;BME280;44255;49.244;7.726;2022-08-19T00:16:19;97992.78;;;18.12;72.86
58467;BME280;44255;49.244;7.726;2022-08-19T00:18:46;97997.47;;;18.10;72.94
58467;BME280;44255;49.244;7.726;2022-08-19T00:21:11;97994.34;;;18.05;73.11
58467;BME280;44255;49.244;7.726;2022-08-19T00:23:36;98000.34;;;18.09;72.87
58467;BME280;44255;49.244;7.726;2022-08-19T00:26:04;98006.91;;;17.96;73.14
58467;BME280;44255;49.244;7.726;2022-08-19T00:28:30;98013.91;;;17.99;73.05
58467;BME280;44255;49.244;7.726;2022-08-19T00:30:55;98024.06;;;18.07;72.79
58467;BME280;44255;49.244;7.726;2022-08-19T00:33:21;98018.03;;;18.03;72.87
58467;BME280;44255;49.244;7.726;2022-08-19T00:35:46;98022.19;;;18.07;72.63
58467;BME280;44255;49.244;7.726;2022-08-19T00:38:12;98011.03;;;18.00;72.97
58467;BME280;44255;49.244;7.726;2022-08-19T00:40:37;98011.03;;;18.00;72.64
58467;BME280;44255;49.244;7.726;2022-08-19T00:43:10;97999.19;;;18.01;72.66
58467;BME280;44255;49.244;7.726;2022-08-19T00:45:38;97994.34;;;18.05;72.43
58467;BME280;44255;49.244;7.726;2022-08-19T00:48:06;97989.22;;;17.92;72.83
58467;BME280;44255;49.244;7.726;2022-08-19T00:50:33;97990.81;;;17.95;72.83
58467;BME280;44255;49.244;7.726;2022-08-19T00:52:59;97979.94;;;17.95;72.59
58467;BME280;44255;49.244;7.726;2022-08-19T00:55:26;97985.50;;;17.83;73.07
58467;BME280;44255;49.244;7.726;2022-08-19T00:58:07;97981.38;;;17.79;73.06
58467;BME280;44255;49.244;7.726;2022-08-19T01:00:35;97983.38;;;17.77;73.08
58467;BME280;44255;49.244;7.726;2022-08-19T01:03:05;97981.09;;;17.72;73.45
58467;BME280;44255;49.244;7.726;2022-08-19T01:05:30;97979.09;;;17.55;74.44
58467;BME280;44255;49.244;7.726;2022-08-19T01:07:58;97974.09;;;17.70;73.53
58467;BME280;44255;49.244;7.726;2022-08-19T01:10:29;97970.53;;;17.69;73.49
58467;BME280;44255;49.244;7.726;2022-08-19T01:12:56;97963.13;;;17.71;73.10
58467;BME280;44255;49.244;7.726;2022-08-19T01:15:31;97967.69;;;17.71;73.19
58467;BME280;44255;49.244;7.726;2022-08-19T01:18:04;97974.81;;;17.62;73.56
58467;BME280;44255;49.244;7.726;2022-08-19T01:20:30;97973.50;;;17.47;74.47
58467;BME280;44255;49.244;7.726;2022-08-19T01:22:58;97984.81;;;17.62;73.75
58467;BME280;44255;49.244;7.726;2022-08-19T01:25:33;97996.78;;;17.59;73.57
58467;BME280;44255;49.244;7.726;2022-08-19T01:28:01;97998.50;;;17.50;73.83
58467;BME280;44255;49.244;7.726;2022-08-19T01:30:30;97995.94;;;17.58;73.75
58467;BME280;44255;49.244;7.726;2022-08-19T01:32:56;97997.88;;;17.47;74.32
58467;BME280;44255;49.244;7.726;2022-08-19T01:35:24;97994.25;;;17.07;75.96
58467;BME280;44255;49.244;7.726;2022-08-19T01:37:55;97994.22;;;17.48;73.81
58467;BME280;44255;49.244;7.726;2022-08-19T01:40:23;97993.22;;;17.49;73.46
58467;BME280;44255;49.244;7.726;2022-08-19T01:42:51;97995.84;;;17.19;74.95
58467;BME280;44255;49.244;7.726;2022-08-19T01:45:19;97994.88;;;17.40;73.76
58467;BME280;44255;49.244;7.726;2022-08-19T01:47:44;97994.63;;;17.43;73.61
58467;BME280;44255;49.244;7.726;2022-08-19T01:50:11;98000.19;;;17.41;73.96
58467;BME280;44255;49.244;7.726;2022-08-19T01:52:38;98005.94;;;17.48;73.66
58467;BME280;44255;49.244;7.726;2022-08-19T01:55:07;98013.44;;;17.44;73.91
58467;BME280;44255;49.244;7.726;2022-08-19T01:57:33;97998.47;;;17.40;73.95
58467;BME280;44255;49.244;7.726;2022-08-19T01:59:59;98009.44;;;17.39;73.84
58467;BME280;44255;49.244;7.726;2022-08-19T02:02:25;98003.31;;;17.37;73.97
58467;BME280;44255;49.244;7.726;2022-08-19T02:04:54;98005.16;;;17.36;74.06
58467;BME280;44255;49.244;7.726;2022-08-19T02:07:20;98007.88;;;17.26;74.52
58467;BME280;44255;49.244;7.726;2022-08-19T02:09:49;98008.69;;;17.17;74.52
58467;BME280;44255;49.244;7.726;2022-08-19T02:12:14;98014.81;;;17.19;74.67
58467;BME280;44255;49.244;7.726;2022-08-19T02:14:40;98009.84;;;17.24;74.30
58467;BME280;44255;49.244;7.726;2022-08-19T02:17:05;98014.44;;;17.34;73.69
58467;BME280;44255;49.244;7.726;2022-08-19T02:19:31;98012.00;;;17.30;74.06
58467;BME280;44255;49.244;7.726;2022-08-19T02:21:58;98014.84;;;17.29;74.22
58467;BME280;44255;49.244;7.726;2022-08-19T02:24:24;98013.28;;;17.26;74.00
58467;BME280;44255;49.244;7.726;2022-08-19T02:26:49;98010.00;;;17.23;74.16
58467;BME280;44255;49.244;7.726;2022-08-19T02:29:14;98013.97;;;17.19;74.52
58467;BME280;44255;49.244;7.726;2022-08-19T02:31:40;98024.81;;;17.19;74.22
58467;BME280;44255;49.244;7.726;2022-08-19T02:34:05;98021.66;;;17.13;74.66
58467;BME280;44255;49.244;7.726;2022-08-19T02:36:31;98016.66;;;17.09;74.67
58467;BME280;44255;49.244;7.726;2022-08-19T02:38:56;98010.25;;;17.10;74.82
58467;BME280;44255;49.244;7.726;2022-08-19T02:41:25;98016.94;;;17.15;74.27
58467;BME280;44255;49.244;7.726;2022-08-19T02:43:50;98017.09;;;17.14;74.23
58467;BME280;44255;49.244;7.726;2022-08-19T02:46:17;98016.09;;;17.15;74.32
58467;BME280;44255;49.244;7.726;2022-08-19T02:48:49;98020.63;;;17.05;74.55
58467;BME280;44255;49.244;7.726;2022-08-19T02:51:18;98022.91;;;16.99;74.99
58467;BME280;44255;49.244;7.726;2022-08-19T02:53:44;98022.19;;;16.97;74.82
58467;BME280;44255;49.244;7.726;2022-08-19T02:56:09;98025.19;;;16.94;75.20
58467;BME280;44255;49.244;7.726;2022-08-19T02:58:35;98017.47;;;16.99;74.82
58467;BME280;44255;49.244;7.726;2022-08-19T03:01:00;98020.88;;;16.92;74.77
58467;BME280;44255;49.244;7.726;2022-08-19T03:03:26;98023.13;;;16.77;75.25
58467;BME280;44255;49.244;7.726;2022-08-19T03:05:51;98014.44;;;16.83;75.38
58467;BME280;44255;49.244;7.726;2022-08-19T03:08:26;98006.47;;;16.91;75.16
58467;BME280;44255;49.244;7.726;2022-08-19T03:10:52;98004.75;;;16.90;75.18
58467;BME280;44255;49.244;7.726;2022-08-19T03:13:18;98002.03;;;16.90;75.05
58467;BME280;44255;49.244;7.726;2022-08-19T03:15:45;98006.31;;;16.83;74.85
58467;BME280;44255;49.244;7.726;2022-08-19T03:18:12;98017.13;;;16.83;74.35
58467;BME280;44255;49.244;7.726;2022-08-19T03:20:50;98015.44;;;16.82;74.28
58467;BME280;44255;49.244;7.726;2022-08-19T03:23:17;98025.25;;;16.83;73.94
58467;BME280;44255;49.244;7.726;2022-08-19T03:25:45;98029.97;;;16.81;73.91
58467;BME280;44255;49.244;7.726;2022-08-19T03:28:12;98040.78;;;16.81;73.73
58467;BME280;44255;49.244;7.726;2022-08-19T03:30:39;98033.66;;;16.80;73.67
58467;BME280;44255;49.244;7.726;2022-08-19T03:33:10;98038.03;;;16.71;74.32
58467;BME280;44255;49.244;7.726;2022-08-19T03:35:36;98038.53;;;16.65;74.27
58467;BME280;44255;49.244;7.726;2022-08-19T03:38:03;98038.97;;;16.60;74.23
58467;BME280;44255;49.244;7.726;2022-08-19T03:40:29;98035.38;;;16.59;74.67
58467;BME280;44255;49.244;7.726;2022-08-19T03:42:55;98040.53;;;16.63;74.24
58467;BME280;44255;49.244;7.726;2022-08-19T03:45:21;98035.00;;;16.64;74.13
58467;BME280;44255;49.244;7.726;2022-08-19T03:47:46;98034.91;;;16.66;74.28
58467;BME280;44255;49.244;7.726;2022-08-19T03:50:11;98038.69;;;16.63;74.16
58467;BME280;44255;49.244;7.726;2022-08-19T03:52:37;98031.25;;;16.55;74.24
58467;BME280;44255;49.244;7.726;2022-08-19T03:55:03;98039.59;;;16.21;76.24
58467;BME280;44255;49.244;7.726;2022-08-19T03:57:28;98029.28;;;16.36;75.08
58467;BME280;44255;49.244;7.726;2022-08-19T03:59:53;98035.41;;;16.38;74.87
58467;BME280;44255;49.244;7.726;2022-08-19T04:02:19;98035.81;;;16.34;75.26
58467;BME280;44255;49.244;7.726;2022-08-19T04:04:45;98023.19;;;16.44;74.73
58467;BME280;44255;49.244;7.726;2022-08-19T04:07:12;98028.59;;;16.44;74.38
58467;BME280;44255;49.244;7.726;2022-08-19T04:09:40;98028.44;;;16.36;74.90
58467;BME280;44255;49.244;7.726;2022-08-19T04:12:06;98029.00;;;16.39;74.83
58467;BME280;44255;49.244;7.726;2022-08-19T04:14:32;98031.84;;;16.38;74.49
58467;BME280;44255;49.244;7.726;2022-08-19T04:16:59;98033.25;;;16.32;74.50
58467;BME280;44255;49.244;7.726;2022-08-19T04:19:25;98029.69;;;16.31;74.27
58467;BME280;44255;49.244;7.726;2022-08-19T04:21:52;98024.19;;;16.22;74.63
58467;BME280;44255;49.244;7.726;2022-08-19T04:24:19;98031.47;;;16.21;74.70
58467;BME280;44255;49.244;7.726;2022-08-19T04:26:45;98039.59;;;16.21;74.43
58467;BME280;44255;49.244;7.726;2022-08-19T04:29:20;98031.06;;;16.26;74.13
58467;BME280;44255;49.244;7.726;2022-08-19T04:31:48;98032.25;;;16.33;73.49
58467;BME280;44255;49.244;7.726;2022-08-19T04:34:15;98037.47;;;16.25;73.95
58467;BME280;44255;49.244;7.726;2022-08-19T04:36:43;98034.53;;;15.63;76.47
58467;BME280;44255;49.244;7.726;2022-08-19T04:39:17;98031.03;;;15.83;76.16
58467;BME280;44255;49.244;7.726;2022-08-19T04:41:44;98031.91;;;16.05;74.73
58467;BME280;44255;49.244;7.726;2022-08-19T04:44:28;98024.38;;;15.55;77.77
58467;BME280;44255;49.244;7.726;2022-08-19T04:46:55;98015.16;;;15.90;75.41
58467;BME280;44255;49.244;7.726;2022-08-19T04:49:22;98010.00;;;15.87;75.15
58467;BME280;44255;49.244;7.726;2022-08-19T04:51:48;98008.59;;;15.39;77.64
58467;BME280;44255;49.244;7.726;2022-08-19T04:54:16;98012.28;;;15.70;76.93
58467;BME280;44255;49.244;7.726;2022-08-19T04:56:42;98012.13;;;15.39;77.37
58467;BME280;44255;49.244;7.726;2022-08-19T04:59:08;98013.34;;;15.79;75.82
58467;BME280;44255;49.244;7.726;2022-08-19T05:01:35;98025.97;;;15.90;74.67
58467;BME280;44255;49.244;7.726;2022-08-19T05:04:03;98029.91;;;15.97;74.24
58467;BME280;44255;49.244;7.726;2022-08-19T05:06:30;98042.72;;;16.05;73.48
58467;BME280;44255;49.244;7.726;2022-08-19T05:08:58;98034.88;;;16.02;73.21
58467;BME280;44255;49.244;7.726;2022-08-19T05:11:26;98041.28;;;16.01;73.58
58467;BME280;44255;49.244;7.726;2022-08-19T05:13:53;98046.25;;;15.96;74.04
58467;BME280;44255;49.244;7.726;2022-08-19T05:16:20;98039.94;;;15.63;76.21
58467;BME280;44255;49.244;7.726;2022-08-19T05:18:47;98052.03;;;15.91;74.92
58467;BME280;44255;49.244;7.726;2022-08-19T05:21:31;98052.81;;;16.03;74.52
58467;BME280;44255;49.244;7.726;2022-08-19T05:24:17;98052.50;;;15.96;74.92
58467;BME280;44255;49.244;7.726;2022-08-19T05:26:46;98067.59;;;15.99;74.78
58467;BME280;44255;49.244;7.726;2022-08-19T05:29:14;98073.47;;;16.04;74.79
58467;BME280;44255;49.244;7.726;2022-08-19T05:31:40;98065.88;;;15.98;75.22
58467;BME280;44255;49.244;7.726;2022-08-19T05:34:06;98069.78;;;16.05;74.61
58467;BME280;44255;49.244;7.726;2022-08-19T05:36:41;98075.41;;;16.13;74.15
58467;BME280;44255;49.244;7.726;2022-08-19T05:39:08;98070.47;;;16.18;74.15
58467;BME280;44255;49.244;7.726;2022-08-19T05:41:34;98076.84;;;16.17;73.99
58467;BME280;44255;49.244;7.726;2022-08-19T05:44:04;98077.06;;;16.26;73.94
58467;BME280;44255;49.244;7.726;2022-08-19T05:46:35;98085.38;;;16.34;73.21
58467;BME280;44255;49.244;7.726;2022-08-19T05:49:02;98083.06;;;16.29;74.80
58467;BME280;44255;49.244;7.726;2022-08-19T05:51:29;98092.50;;;16.35;74.26
58467;BME280;44255;49.244;7.726;2022-08-19T05:53:54;98106.44;;;16.52;73.38
58467;BME280;44255;49.244;7.726;2022-08-19T05:56:19;98106.16;;;16.55;72.98
58467;BME280;44255;49.244;7.726;2022-08-19T05:58:45;98118.72;;;16.56;73.08
58467;BME280;44255;49.244;7.726;2022-08-19T06:01:14;98114.84;;;16.70;72.69
58467;BME280;44255;49.244;7.726;2022-08-19T06:03:40;98118.13;;;16.73;72.99
58467;BME280;44255;49.244;7.726;2022-08-19T06:06:07;98117.00;;;16.55;73.93
58467;BME280;44255;49.244;7.726;2022-08-19T06:08:34;98110.75;;;16.76;72.73
58467;BME280;44255;49.244;7.726;2022-08-19T06:11:34;98117.41;;;16.71;73.74
58467;BME280;44255;49.244;7.726;2022-08-19T06:14:05;98134.63;;;16.92;73.24
58467;BME280;44255;49.244;7.726;2022-08-19T06:16:33;98132.56;;;17.05;72.80
58467;BME280;44255;49.244;7.726;2022-08-19T06:19:01;98129.34;;;17.21;72.05
58467;BME280;44255;49.244;7.726;2022-08-19T06:21:28;98133.97;;;17.30;72.07
58467;BME280;44255;49.244;7.726;2022-08-19T06:23:55;98139.09;;;17.34;72.04
58467;BME280;44255;49.244;7.726;2022-08-19T06:26:21;98135.19;;;17.48;71.40
58467;BME280;44255;49.244;7.726;2022-08-19T06:28:48;98137.78;;;17.59;71.23
58467;BME280;44255;49.244;7.726;2022-08-19T06:31:18;98134.38;;;17.67;71.08
58467;BME280;44255;49.244;7.726;2022-08-19T06:33:46;98137.53;;;17.72;70.39
58467;BME280;44255;49.244;7.726;2022-08-19T06:36:22;98130.09;;;17.74;70.24
58467;BME280;44255;49.244;7.726;2022-08-19T06:38:52;98124.00;;;17.92;69.46
58467;BME280;44255;49.244;7.726;2022-08-19T06:41:17;98118.44;;;17.93;69.09
58467;BME280;44255;49.244;7.726;2022-08-19T06:43:42;98117.13;;;17.87;68.91
58467;BME280;44255;49.244;7.726;2022-08-19T06:46:10;98123.28;;;17.90;69.74
58467;BME280;44255;49.244;7.726;2022-08-19T06:48:36;98117.59;;;18.02;69.64
58467;BME280;44255;49.244;7.726;2022-08-19T06:51:01;98117.31;;;18.25;68.74
58467;BME280;44255;49.244;7.726;2022-08-19T06:53:30;98124.47;;;18.26;67.15
58467;BME280;44255;49.244;7.726;2022-08-19T06:55:55;98129.31;;;18.42;66.96
58467;BME280;44255;49.244;7.726;2022-08-19T06:58:25;98126.88;;;18.49;67.35
58467;BME280;44255;49.244;7.726;2022-08-19T07:00:51;98117.91;;;18.49;67.13
58467;BME280;44255;49.244;7.726;2022-08-19T07:03:16;98125.03;;;18.50;66.16
58467;BME280;44255;49.244;7.726;2022-08-19T07:05:41;98124.13;;;18.69;66.39
58467;BME280;44255;49.244;7.726;2022-08-19T07:08:07;98116.44;;;18.64;66.46
58467;BME280;44255;49.244;7.726;2022-08-19T07:10:32;98127.38;;;18.82;65.98
58467;BME280;44255;49.244;7.726;2022-08-19T07:12:59;98118.97;;;18.76;65.69
58467;BME280;44255;49.244;7.726;2022-08-19T07:15:25;98126.81;;;18.89;65.43
58467;BME280;44255;49.244;7.726;2022-08-19T07:17:50;98126.00;;;18.68;65.29
58467;BME280;44255;49.244;7.726;2022-08-19T07:20:16;98130.69;;;18.76;64.42
58467;BME280;44255;49.244;7.726;2022-08-19T07:22:41;98123.31;;;18.58;63.66
58467;BME280;44255;49.244;7.726;2022-08-19T07:25:08;98122.88;;;18.24;65.91
58467;BME280;44255;49.244;7.726;2022-08-19T07:27:34;98118.59;;;18.51;63.77
58467;BME280;44255;49.244;7.726;2022-08-19T07:30:00;98121.72;;;18.56;64.08
58467;BME280;44255;49.244;7.726;2022-08-19T07:32:25;98115.88;;;18.11;65.23
58467;BME280;44255;49.244;7.726;2022-08-19T07:34:54;98112.38;;;18.88;63.16
58467;BME280;44255;49.244;7.726;2022-08-19T07:37:20;98113.22;;;18.79;63.79
58467;BME280;44255;49.244;7.726;2022-08-19T07:39:45;98115.34;;;18.95;63.83
58467;BME280;44255;49.244;7.726;2022-08-19T07:42:11;98115.63;;;19.01;62.62
58467;BME280;44255;49.244;7.726;2022-08-19T07:44:37;98107.94;;;19.35;61.99
58467;BME280;44255;49.244;7.726;2022-08-19T07:47:04;98112.06;;;19.67;61.38
58467;BME280;44255;49.244;7.726;2022-08-19T07:49:29;98115.69;;;19.85;60.64
58467;BME280;44255;49.244;7.726;2022-08-19T07:51:59;98121.13;;;20.22;59.70
58467;BME280;44255;49.244;7.726;2022-08-19T07:54:28;98110.91;;;20.42;59.30
58467;BME280;44255;49.244;7.726;2022-08-19T07:56:54;98120.94;;;20.41;58.10
58467;BME280;44255;49.244;7.726;2022-08-19T07:59:20;98116.59;;;20.49;58.00
58467;BME280;44255;49.244;7.726;2022-08-19T08:01:46;98118.38;;;20.40;57.28
58467;BME280;44255;49.244;7.726;2022-08-19T08:04:12;98117.31;;;20.14;58.34
58467;BME280;44255;49.244;7.726;2022-08-19T08:06:56;98112.78;;;20.60;58.08
58467;BME280;44255;49.244;7.726;2022-08-19T08:09:41;98112.09;;;20.39;57.30
58467;BME280;44255;49.244;7.726;2022-08-19T08:12:13;98110.25;;;20.66;56.29
58467;BME280;44255;49.244;7.726;2022-08-19T08:14:47;98105.53;;;20.68;56.75
58467;BME280;44255;49.244;7.726;2022-08-19T08:17:14;98111.38;;;20.82;56.35
58467;BME280;44255;49.244;7.726;2022-08-19T08:19:40;98117.41;;;20.67;56.46
58467;BME280;44255;49.244;7.726;2022-08-19T08:22:06;98115.34;;;20.61;56.97
58467;BME280;44255;49.244;7.726;2022-08-19T08:24:32;98114.41;;;20.97;55.97
58467;BME280;44255;49.244;7.726;2022-08-19T08:26:59;98108.94;;;21.23;55.39
58467;BME280;44255;49.244;7.726;2022-08-19T08:29:29;98115.41;;;20.69;55.67
58467;BME280;44255;49.244;7.726;2022-08-19T08:31:56;98122.94;;;21.02;54.39
58467;BME280;44255;49.244;7.726;2022-08-19T08:34:22;98124.53;;;20.60;55.38
58467;BME280;44255;49.244;7.726;2022-08-19T08:36:48;98113.72;;;21.30;54.85
58467;BME280;44255;49.244;7.726;2022-08-19T08:39:19;98118.06;;;20.88;53.91
58467;BME280;44255;49.244;7.726;2022-08-19T08:42:17;98118.50;;;20.75;53.64
58467;BME280;44255;49.244;7.726;2022-08-19T08:47:17;98126.81;;;21.18;53.43
58467;BME280;44255;49.244;7.726;2022-08-19T08:52:52;98127.25;;;21.39;52.85
58467;BME280;44255;49.244;7.726;2022-08-19T08:55:24;98141.13;;;21.20;52.06
58467;BME280;44255;49.244;7.726;2022-08-19T09:00:34;98140.31;;;21.27;51.71
58467;BME280;44255;49.244;7.726;2022-08-19T09:03:02;98141.66;;;20.97;53.07
58467;BME280;44255;49.244;7.726;2022-08-19T09:05:41;98153.25;;;20.99;51.97
58467;BME280;44255;49.244;7.726;2022-08-19T09:08:39;98143.00;;;21.54;50.90
58467;BME280;44255;49.244;7.726;2022-08-19T09:11:06;98139.00;;;21.83;51.05
58467;BME280;44255;49.244;7.726;2022-08-19T09:13:48;98132.25;;;22.04;50.58
58467;BME280;44255;49.244;7.726;2022-08-19T09:16:20;98141.13;;;21.54;52.50
58467;BME280;44255;49.244;7.726;2022-08-19T09:18:54;98145.41;;;21.22;52.19
58467;BME280;44255;49.244;7.726;2022-08-19T09:21:23;98141.88;;;20.77;53.40
58467;BME280;44255;49.244;7.726;2022-08-19T09:23:49;98140.19;;;21.11;52.54
58467;BME280;44255;49.244;7.726;2022-08-19T09:26:18;98136.97;;;21.85;50.67
58467;BME280;44255;49.244;7.726;2022-08-19T09:28:47;98133.88;;;21.10;52.27
58467;BME280;44255;49.244;7.726;2022-08-19T09:31:15;98135.47;;;21.48;51.35
58467;BME280;44255;49.244;7.726;2022-08-19T09:33:40;98130.28;;;21.28;51.65
58467;BME280;44255;49.244;7.726;2022-08-19T09:36:10;98131.06;;;21.55;50.77
58467;BME280;44255;49.244;7.726;2022-08-19T09:38:36;98129.19;;;21.98;48.90
58467;BME280;44255;49.244;7.726;2022-08-19T09:41:09;98131.94;;;22.23;48.95
58467;BME280;44255;49.244;7.726;2022-08-19T09:43:38;98128.88;;;22.18;48.19
58467;BME280;44255;49.244;7.726;2022-08-19T09:46:04;98116.75;;;22.71;46.30
58467;BME280;44255;49.244;7.726;2022-08-19T09:48:32;98117.44;;;22.48;47.20
58467;BME280;44255;49.244;7.726;2022-08-19T09:51:06;98116.09;;;22.52;47.72
58467;BME280;44255;49.244;7.726;2022-08-19T09:53:33;98110.59;;;22.10;47.72
58467;BME280;44255;49.244;7.726;2022-08-19T09:55:59;98102.41;;;22.10;46.93
58467;BME280;44255;49.244;7.726;2022-08-19T09:58:24;98108.94;;;22.59;46.63
58467;BME280;44255;49.244;7.726;2022-08-19T10:00:53;98110.94;;;22.16;46.99
58467;BME280;44255;49.244;7.726;2022-08-19T10:03:19;98119.31;;;22.22;46.72
58467;BME280;44255;49.244;7.726;2022-08-19T10:05:44;98118.41;;;21.97;47.81
58467;BME280;44255;49.244;7.726;2022-08-19T10:08:24;98125.78;;;22.46;46.73
58467;BME280;44255;49.244;7.726;2022-08-19T10:10:54;98127.00;;;22.44;45.89
58467;BME280;44255;49.244;7.726;2022-08-19T10:13:22;98134.50;;;22.25;44.80
58467;BME280;44255;49.244;7.726;2022-08-19T10:15:50;98127.16;;;23.00;43.80
58467;BME280;44255;49.244;7.726;2022-08-19T10:18:17;98124.25;;;23.58;44.08
58467;BME280;44255;49.244;7.726;2022-08-19T10:20:44;98117.94;;;23.49;44.02
58467;BME280;44255;49.244;7.726;2022-08-19T10:23:10;98114.72;;;22.56;42.50
58467;BME280;44255;49.244;7.726;2022-08-19T10:25:35;98114.34;;;22.92;42.41
58467;BME280;44255;49.244;7.726;2022-08-19T10:28:01;98113.00;;;22.72;41.98
58467;BME280;44255;49.244;7.726;2022-08-19T10:30:26;98111.31;;;22.54;42.20
58467;BME280;44255;49.244;7.726;2022-08-19T10:32:52;98113.50;;;22.83;42.20
58467;BME280;44255;49.244;7.726;2022-08-19T10:35:18;98109.06;;;22.82;41.62
58467;BME280;44255;49.244;7.726;2022-08-19T10:37:43;98101.03;;;22.73;41.19
58467;BME280;44255;49.244;7.726;2022-08-19T10:40:08;98099.94;;;23.07;39.74
58467;BME280;44255;49.244;7.726;2022-08-19T10:42:36;98105.28;;;22.92;40.28
58467;BME280;44255;49.244;7.726;2022-08-19T10:45:03;98103.41;;;22.92;39.79
58467;BME280;44255;49.244;7.726;2022-08-19T10:47:29;98099.09;;;22.98;40.52
58467;BME280;44255;49.244;7.726;2022-08-19T10:49:54;98091.38;;;23.27;39.00
58467;BME280;44255;49.244;7.726;2022-08-19T10:52:48;98101.69;;;23.88;39.00
58467;BME280;44255;49.244;7.726;2022-08-19T10:55:14;98095.44;;;24.02;38.43
58467;BME280;44255;49.244;7.726;2022-08-19T10:57:57;98103.66;;;24.02;38.68
58467;BME280;44255;49.244;7.726;2022-08-19T11:00:24;98090.44;;;23.83;38.38
58467;BME280;44255;49.244;7.726;2022-08-19T11:02:51;98096.88;;;23.18;38.97
58467;BME280;44255;49.244;7.726;2022-08-19T11:05:17;98101.94;;;23.70;39.09
58467;BME280;44255;49.244;7.726;2022-08-19T11:07:43;98098.03;;;23.95;39.79
58467;BME280;44255;49.244;7.726;2022-08-19T11:10:11;98094.56;;;23.38;39.52
58467;BME280;44255;49.244;7.726;2022-08-19T11:12:38;98096.09;;;23.81;39.04
58467;BME280;44255;49.244;7.726;2022-08-19T11:15:07;98089.97;;;24.26;37.37
58467;BME280;44255;49.244;7.726;2022-08-19T11:17:34;98086.22;;;24.65;37.70
58467;BME280;44255;49.244;7.726;2022-08-19T11:20:01;98078.91;;;24.57;37.37
58467;BME280;44255;49.244;7.726;2022-08-19T11:22:29;98074.31;;;24.73;37.72
58467;BME280;44255;49.244;7.726;2022-08-19T11:24:54;98073.47;;;24.72;37.35
58467;BME280;44255;49.244;7.726;2022-08-19T11:27:21;98074.09;;;24.36;37.01
58467;BME280;44255;49.244;7.726;2022-08-19T11:29:46;98081.56;;;24.50;37.71
58467;BME280;44255;49.244;7.726;2022-08-19T11:32:11;98082.59;;;25.03;36.75
58467;BME280;44255;49.244;7.726;2022-08-19T11:34:37;98071.03;;;24.92;36.70
58467;BME280;44255;49.244;7.726;2022-08-19T11:37:03;98068.66;;;24.89;36.27
58467;BME280;44255;49.244;7.726;2022-08-19T11:39:30;98080.06;;;24.48;36.72
58467;BME280;44255;49.244;7.726;2022-08-19T11:42:00;98082.13;;;24.46;37.20
58467;BME280;44255;49.244;7.726;2022-08-19T11:44:27;98075.44;;;24.02;36.56
58467;BME280;44255;49.244;7.726;2022-08-19T11:46:55;98068.97;;;24.18;36.89
58467;BME280;44255;49.244;7.726;2022-08-19T11:49:21;98072.25;;;23.90;37.87
58467;BME280;44255;49.244;7.726;2022-08-19T11:51:47;98062.88;;;24.69;36.51
58467;BME280;44255;49.244;7.726;2022-08-19T11:54:14;98073.00;;;24.84;36.74
58467;BME280;44255;49.244;7.726;2022-08-19T11:56:40;98075.25;;;24.65;36.30
58467;BME280;44255;49.244;7.726;2022-08-19T11:59:05;98075.66;;;24.15;36.44
58467;BME280;44255;49.244;7.726;2022-08-19T12:01:31;98065.69;;;24.22;36.94
58467;BME280;44255;49.244;7.726;2022-08-19T12:03:58;98071.75;;;24.09;36.90
58467;BME280;44255;49.244;7.726;2022-08-19T12:06:27;98058.06;;;24.86;36.91
58467;BME280;44255;49.244;7.726;2022-08-19T12:08:54;98061.47;;;24.88;36.46
58467;BME280;44255;49.244;7.726;2022-08-19T12:11:20;98052.03;;;25.21;35.58
58467;BME280;44255;49.244;7.726;2022-08-19T12:13:46;98040.91;;;25.44;35.15
58467;BME280;44255;49.244;7.726;2022-08-19T12:16:16;98046.50;;;25.51;34.40
58467;BME280;44255;49.244;7.726;2022-08-19T12:18:42;98045.88;;;26.07;33.81
58467;BME280;44255;49.244;7.726;2022-08-19T12:21:10;98033.44;;;25.68;33.32
58467;BME280;44255;49.244;7.726;2022-08-19T12:23:37;98033.38;;;25.83;33.86
58467;BME280;44255;49.244;7.726;2022-08-19T12:26:03;98023.47;;;26.11;32.39
58467;BME280;44255;49.244;7.726;2022-08-19T12:28:30;98036.59;;;25.87;32.32
58467;BME280;44255;49.244;7.726;2022-08-19T12:30:56;98030.94;;;26.67;32.61
58467;BME280;44255;49.244;7.726;2022-08-19T12:33:21;98032.66;;;25.96;32.79
58467;BME280;44255;49.244;7.726;2022-08-19T12:35:50;98033.13;;;25.63;33.09
58467;BME280;44255;49.244;7.726;2022-08-19T12:38:15;98040.13;;;26.24;32.21
58467;BME280;44255;49.244;7.726;2022-08-19T12:40:41;98026.38;;;26.02;32.69
58467;BME280;44255;49.244;7.726;2022-08-19T12:43:09;98039.13;;;26.10;32.81
58467;BME280;44255;49.244;7.726;2022-08-19T12:45:37;98034.53;;;26.39;32.53
58467;BME280;44255;49.244;7.726;2022-08-19T12:48:02;98028.06;;;27.11;31.22
58467;BME280;44255;49.244;7.726;2022-08-19T12:50:28;98014.31;;;27.66;30.18
58467;BME280;44255;49.244;7.726;2022-08-19T12:52:54;98015.50;;;28.46;29.77
58467;BME280;44255;49.244;7.726;2022-08-19T12:55:19;98022.00;;;29.06;28.82
58467;BME280;44255;49.244;7.726;2022-08-19T12:57:45;98039.59;;;26.64;30.82
58467;BME280;44255;49.244;7.726;2022-08-19T13:00:16;98030.09;;;25.58;32.25
58467;BME280;44255;49.244;7.726;2022-08-19T13:02:45;98034.69;;;26.09;32.13
58467;BME280;44255;49.244;7.726;2022-08-19T13:05:13;98042.56;;;25.75;32.01
58467;BME280;44255;49.244;7.726;2022-08-19T13:07:41;98037.66;;;25.71;31.35
58467;BME280;44255;49.244;7.726;2022-08-19T13:10:10;98046.66;;;25.13;32.67
58467;BME280;44255;49.244;7.726;2022-08-19T13:12:37;98056.94;;;24.95;32.98